Time;durP1;ratioP1;P1;durP2;ratioP2;P2;SDS_P1;SDS_P2;PMS_P1;PMS_P2;Temp;Humidity;BMP_temperature;BMP_pressure;BME280_temperature;BME280_humidity;BME280_pressure;Samples;Min_cycle;Max_cycle;Signal;HPM_P1;HPM_P2
2022/02/11 00:07:06;;;;;;;;;;;;;;;;;;;;;
2022/02/11 00:09:37;;;;;;;18.58;6.75;;;;;;;4.26;75.26;93150.38;4978971;28;20089;-90
2022/02/11 00:12:13;;;;;;;11.68;5.93;;;;;;;4.15;74.68;93131.25;4967419;28;20038;-90
2022/02/11 00:18:11;;;;;;;19.60;6.93;;;;;;;4.04;75.01;93146.84;4938930;29;20047;-89
2022/02/11 00:21:17;;;;;;;;;;;;;;;;;;;;;
2022/02/11 00:23:53;;;;;;;17.77;7.82;;;;;;;4.23;74.97;93187.09;4985357;28;20038;-90
2022/02/11 00:26:38;;;;;;;22.98;10.07;;;;;;;3.80;74.47;93141.69;4980308;28;20038;-89
2022/02/11 00:30:16;;;;;;;;;;;;;;;;;;;;;
2022/02/11 00:32:45;;;;;;;24.55;10.32;;;;;;;3.77;73.87;93136.97;4971053;28;20042;-90
2022/02/11 01:02:50;;;;;;;;;;;;;;;;;;;;;
2022/02/11 01:06:03;;;;;;;;;;;;;;;;;;;;;
2022/02/11 01:08:52;;;;;;;26.05;10.32;;;;;;;2.97;73.91;93085.81;4989961;28;20121;-90
2022/02/11 01:11:44;;;;;;;27.98;11.07;;;;;;;3.28;74.37;93128.69;4990949;28;20034;-89
2022/02/11 01:14:45;;;;;;;22.55;10.52;;;;;;;2.95;74.73;93078.28;4978738;28;20077;-90
2022/02/11 01:18:01;;;;;;;32.40;11.52;;;;;;;3.33;74.64;93136.53;4978073;28;20038;-89
2022/02/11 01:21:08;;;;;;;20.10;10.63;;;;;;;3.22;74.17;93098.53;4965793;28;20398;-90
2022/02/11 01:24:11;;;;;;;26.60;10.98;;;;;;;3.30;74.13;93091.22;4962749;28;20046;-90
2022/02/11 01:35:46;;;;;;;25.27;11.00;;;;;;;4.01;72.93;93127.34;4981050;28;20042;-90
2022/02/11 01:45:30;;;;;;;20.80;10.50;;;;;;;3.94;72.02;93077.47;4951021;28;20093;-90
2022/02/11 02:30:19;;;;;;;17.52;8.85;;;;;;;4.47;71.90;93093.72;4978801;28;20479;-90
2022/02/11 02:50:23;;;;;;;19.13;7.55;;;;;;;4.15;72.83;93034.59;4977039;28;20050;-90
2022/02/11 02:56:50;;;;;;;;;;;;;;;;;;;;;
2022/02/11 03:00:01;;;;;;;15.13;7.13;;;;;;;4.16;73.63;93036.94;4994399;28;20042;-90
2022/02/11 03:49:22;;;;;;;19.10;8.43;;;;;;;4.26;73.23;93020.78;4980624;28;20046;-90
2022/02/11 03:52:29;;;;;;;21.55;6.65;;;;;;;4.49;73.58;93063.16;4998297;28;20065;-91
2022/02/11 04:22:27;;;;;;;19.08;7.80;;;;;;;4.47;70.98;93002.97;4971884;28;20060;-90
2022/02/11 04:25:48;;;;;;;19.23;7.45;;;;;;;4.26;71.18;92983.72;4964737;28;20124;-90
2022/02/11 04:52:43;;;;;;;13.65;7.18;;;;;;;4.55;71.31;93038.88;4961876;28;20141;-89
2022/02/11 04:56:03;;;;;;;;;;;;;;;;;;;;;
2022/02/11 05:01:46;;;;;;;;;;;;;;;;;;;;;
2022/02/11 05:04:29;;;;;;;14.70;6.65;;;;;;;4.15;72.68;92972.41;4996183;28;20054;-90
2022/02/11 05:07:21;;;;;;;18.83;7.00;;;;;;;4.32;71.99;92993.94;4963521;28;20069;-89
2022/02/11 05:10:15;;;;;;;;;;;;;;;;;;;;;
2022/02/11 05:13:00;;;;;;;;;;;;;;;;;;;;;
2022/02/11 05:16:04;;;;;;;;;;;;;;;;;;;;;
2022/02/11 05:18:58;;;;;;;;;;;;;;;;;;;;;
2022/02/11 05:21:44;;;;;;;16.63;6.57;;;;;;;4.19;72.92;92994.25;4968700;28;20054;-88
2022/02/11 05:24:29;;;;;;;16.70;6.15;;;;;;;4.44;72.50;93031.97;4988900;28;20068;-87
2022/02/11 05:27:10;;;;;;;;;;;;;;;;;;;;;
2022/02/11 05:30:06;;;;;;;;;;;;;;;;;;;;;
2022/02/11 05:32:57;;;;;;;15.85;7.20;;;;;;;4.03;72.98;92964.69;4983336;28;20042;-87
2022/02/11 05:35:41;;;;;;;16.52;6.45;;;;;;;4.08;72.22;92971.78;4946348;28;20049;-88
2022/02/11 05:38:19;;;;;;;;;;;;;;;;;;;;;
2022/02/11 05:41:03;;;;;;;17.10;6.75;;;;;;;4.16;72.87;92986.91;4974841;28;20492;-88
2022/02/11 05:43:36;;;;;;;17.92;7.47;;;;;;;4.05;72.68;92969.63;4979034;28;20042;-90
2022/02/11 05:46:18;;;;;;;16.08;6.57;;;;;;;4.11;72.98;92973.88;4962608;28;20050;-88
2022/02/11 05:49:03;;;;;;;16.83;6.80;;;;;;;4.19;73.10;92989.06;4975237;28;20243;-89
2022/02/11 05:52:12;;;;;;;;;;;;;;;;;;;;;
2022/02/11 05:54:53;;;;;;;15.07;6.57;;;;;;;4.09;72.57;92970.75;4985786;28;20487;-89
2022/02/11 05:57:46;;;;;;;;;;;;;;;;;;;;;
2022/02/11 06:00:35;;;;;;;16.50;6.63;;;;;;;4.06;73.12;92968.63;5003146;28;20049;-90
2022/02/11 06:04:03;;;;;;;17.73;6.32;;;;;;;4.09;73.30;92974.09;4958531;28;20085;-88
2022/02/11 06:06:56;;;;;;;;;;;;;;;;;;;;;
2022/02/11 06:09:52;;;;;;;14.07;6.43;;;;;;;4.13;72.87;92974.44;4942813;29;20039;-88
2022/02/11 06:12:48;;;;;;;13.52;5.53;;;;;;;4.37;71.63;93006.97;4924106;28;20041;-88
2022/02/11 06:15:40;;;;;;;15.15;6.63;;;;;;;4.11;72.50;92981.66;4979780;28;20129;-88
2022/02/11 06:18:23;;;;;;;22.83;6.40;;;;;;;4.20;72.86;93013.16;4952672;29;20054;-88
2022/02/11 06:21:07;;;;;;;21.98;6.47;;;;;;;3.94;72.86;92977.25;4956254;29;20039;-88
2022/02/11 06:23:58;;;;;;;;;;;;;;;;;;;;;
2022/02/11 06:26:45;;;;;;;;;;;;;;;;;;;;;
2022/02/11 06:29:23;;;;;;;15.65;6.40;;;;;;;4.05;73.45;93019.63;4978252;28;20042;-87
2022/02/11 06:32:25;;;;;;;17.42;6.32;;;;;;;3.88;73.39;92998.09;4959211;28;20035;-87
2022/02/11 06:35:11;;;;;;;11.88;5.90;;;;;;;4.01;73.55;93013.38;4945927;28;20046;-87
2022/02/11 06:37:52;;;;;;;16.95;6.75;;;;;;;4.34;73.81;93059.25;4977155;28;20042;-86
2022/02/11 06:40:23;;;;;;;19.38;6.93;;;;;;;3.91;73.82;92988.06;4943543;28;20039;-88
2022/02/11 06:42:59;;;;;;;16.50;7.10;;;;;;;4.10;74.44;93017.16;4959947;28;20488;-88
2022/02/11 06:45:54;;;;;;;;;;;;;;;;;;;;;
2022/02/11 06:48:25;;;;;;;19.58;7.07;;;;;;;3.99;73.61;93005.03;4925466;29;20093;-88
2022/02/11 06:51:01;;;;;;;13.13;6.88;;;;;;;4.02;73.84;93003.78;4974520;28;20069;-86
2022/02/11 06:53:33;;;;;;;12.00;6.93;;;;;;;4.15;74.13;93026.81;4977236;28;20090;-85
2022/02/11 06:56:01;;;;;;;18.48;7.70;;;;;;;4.40;74.48;93049.00;4972493;28;20035;-85
2022/02/11 06:58:26;;;;;;;15.32;6.70;;;;;;;4.44;74.23;93052.72;4939277;28;20118;-85
2022/02/11 07:00:57;;;;;;;23.08;7.28;;;;;;;4.45;73.51;93064.63;4943224;28;20054;-84
2022/02/11 07:03:25;;;;;;;15.55;6.15;;;;;;;4.43;73.40;93054.50;4974961;28;20023;-84
2022/02/11 07:05:56;;;;;;;23.40;7.13;;;;;;;4.32;73.05;93050.97;4975034;28;20053;-86
2022/02/11 07:08:23;;;;;;;15.98;6.88;;;;;;;4.09;73.46;93015.56;4959631;28;20040;-87
2022/02/11 07:10:58;;;;;;;19.75;7.47;;;;;;;4.18;73.54;93039.28;4969357;28;20042;-85
2022/02/11 07:13:26;;;;;;;16.17;7.05;;;;;;;4.19;73.55;93035.69;4971820;28;20117;-85
2022/02/11 07:15:57;;;;;;;19.10;7.40;;;;;;;4.38;73.47;93062.97;4943112;28;20045;-86
2022/02/11 07:18:27;;;;;;;19.15;6.88;;;;;;;4.11;72.96;93020.53;4992640;28;20127;-85
2022/02/11 07:20:56;;;;;;;16.75;7.35;;;;;;;4.15;73.18;93019.81;4999322;28;20041;-86
2022/02/11 07:23:22;;;;;;;21.63;8.00;;;;;;;4.16;73.04;93020.59;4985938;28;20097;-86
2022/02/11 07:25:50;;;;;;;20.50;7.32;;;;;;;4.23;72.76;93026.41;4992464;28;20082;-86
2022/02/11 07:28:18;;;;;;;19.23;7.07;;;;;;;4.47;72.44;93058.19;4975549;28;20108;-84
2022/02/11 07:30:48;;;;;;;16.38;6.60;;;;;;;4.32;72.24;93030.22;4978952;28;20040;-86
2022/02/11 07:33:17;;;;;;;16.95;6.85;;;;;;;4.31;72.54;93020.88;4978799;28;20037;-85
2022/02/11 07:35:46;;;;;;;18.98;7.20;;;;;;;4.61;72.69;93068.25;5005138;28;20034;-86
2022/02/11 07:38:20;;;;;;;14.82;6.30;;;;;;;4.37;72.73;93021.75;4968572;28;20157;-86
2022/02/11 07:40:51;;;;;;;14.77;6.57;;;;;;;4.45;72.69;93034.31;5009927;28;20128;-87
2022/02/11 07:43:20;;;;;;;13.05;6.35;;;;;;;4.46;72.25;93035.91;4981620;28;20035;-86
2022/02/11 07:45:46;;;;;;;17.42;8.00;;;;;;;4.51;71.62;93035.19;4981259;28;20040;-86
2022/02/11 07:48:11;;;;;;;14.20;6.85;;;;;;;4.80;71.77;93067.81;4976613;28;20030;-87
2022/02/11 07:50:42;;;;;;;22.17;7.55;;;;;;;4.94;70.59;93075.28;4975525;28;20035;-86
2022/02/11 07:53:16;;;;;;;21.67;7.22;;;;;;;4.71;68.81;93027.72;4976241;28;20035;-87
2022/02/11 07:55:52;;;;;;;19.23;6.85;;;;;;;4.73;67.92;93025.69;4948439;28;20046;-87
2022/02/11 07:58:24;;;;;;;15.80;6.63;;;;;;;4.83;66.73;93035.41;4962806;28;20496;-86
2022/02/11 08:01:01;;;;;;;21.90;7.50;;;;;;;4.91;66.42;93047.19;4985783;28;20055;-86
2022/02/11 08:03:32;;;;;;;19.33;6.25;;;;;;;5.08;65.24;93039.41;4974680;28;20038;-85
2022/02/11 08:06:00;;;;;;;15.43;6.70;;;;;;;5.05;64.44;93027.69;4975003;28;20035;-85
2022/02/11 08:08:31;;;;;;;17.75;7.35;;;;;;;5.06;64.54;93024.06;4990001;28;20034;-85
2022/02/11 08:11:00;;;;;;;16.30;6.68;;;;;;;5.54;64.66;93087.56;5008943;28;20045;-85
2022/02/11 08:13:31;;;;;;;16.98;6.70;;;;;;;5.29;64.05;93041.25;5011586;28;20037;-86
2022/02/11 08:16:04;;;;;;;11.93;6.47;;;;;;;5.34;62.67;93045.75;4989653;28;20085;-86
2022/02/11 08:18:38;;;;;;;13.75;6.18;;;;;;;5.40;62.75;93044.75;4988310;28;20057;-86
2022/02/11 08:21:04;;;;;;;16.85;6.38;;;;;;;5.72;62.60;93077.88;4977567;28;20362;-86
2022/02/11 08:23:37;;;;;;;20.55;7.07;;;;;;;5.52;62.47;93042.84;5007022;28;20037;-87
2022/02/11 08:26:07;;;;;;;15.35;6.63;;;;;;;5.78;62.56;93079.53;4974484;28;20070;-86
2022/02/11 08:28:42;;;;;;;16.92;6.47;;;;;;;5.66;62.55;93045.09;4994776;28;20049;-86
2022/02/11 08:31:13;;;;;;;17.83;6.15;;;;;;;5.84;62.67;93049.97;4983751;28;20034;-86
2022/02/11 08:33:49;;;;;;;14.18;6.28;;;;;;;5.86;62.58;93032.34;4998168;28;20049;-85
2022/02/11 08:36:27;;;;;;;15.38;6.40;;;;;;;6.08;64.63;93070.53;4997640;28;20065;-86
2022/02/11 08:38:56;;;;;;;15.73;5.82;;;;;;;6.04;63.65;93036.47;4994011;28;20046;-85
2022/02/11 08:41:26;;;;;;;12.65;6.07;;;;;;;6.42;61.21;93045.94;5011146;28;20041;-85
2022/02/11 08:43:54;;;;;;;18.80;6.07;;;;;;;6.76;63.06;93078.75;5010489;28;20077;-86
2022/02/11 08:46:21;;;;;;;14.75;6.20;;;;;;;6.58;59.78;93038.25;5005735;28;20029;-86
2022/02/11 08:48:59;;;;;;;14.68;6.60;;;;;;;7.05;58.20;93042.78;4991849;28;20475;-86
2022/02/11 08:51:27;;;;;;;12.05;6.20;;;;;;;7.80;56.78;93076.53;4961989;28;20065;-86
2022/02/11 08:53:56;;;;;;;13.95;6.30;;;;;;;7.58;57.33;93056.63;4979084;28;20124;-86
2022/02/11 08:56:34;;;;;;;18.98;6.55;;;;;;;8.20;56.05;93099.38;4962275;28;20137;-86
2022/02/11 08:59:07;;;;;;;19.48;6.88;;;;;;;8.00;56.17;93047.94;4961877;28;20038;-86
2022/02/11 09:01:43;;;;;;;18.17;6.97;;;;;;;7.98;56.41;93050.03;4998238;28;20065;-94
2022/02/11 09:04:48;;;;;;;15.23;6.70;;;;;;;7.86;58.06;93094.56;4968822;28;20042;-93
2022/02/11 09:07:43;;;;;;;16.42;6.65;;;;;;;7.74;56.90;93034.03;4981134;28;20050;-94
2022/02/11 09:10:47;;;;;;;;;;;;;;;;;;;;;
2022/02/11 09:13:51;;;;;;;19.05;7.03;;;;;;;7.55;56.66;93035.50;5008398;28;20045;-94
2022/02/11 09:16:48;;;;;;;14.20;6.65;;;;;;;7.49;56.47;93058.13;4970307;28;20050;-94
2022/02/11 09:19:41;;;;;;;17.58;7.82;;;;;;;7.48;56.41;93064.41;4968940;28;20046;-94
2022/02/11 09:22:52;;;;;;;17.42;6.72;;;;;;;8.00;55.62;93086.28;4977813;28;20043;-93
2022/02/11 09:25:37;;;;;;;18.40;7.28;;;;;;;7.50;54.81;93044.09;4970642;28;20048;-93
2022/02/11 09:35:49;;;;;;;17.98;7.10;;;;;;;7.26;56.85;93091.34;5005637;28;20488;-94
2022/02/11 09:38:55;;;;;;;16.63;6.13;;;;;;;7.74;55.45;93085.38;5010024;28;20050;-95
2022/02/11 09:42:25;;;;;;;14.82;6.35;;;;;;;7.86;53.05;93046.84;4973773;28;20048;-95
2022/02/11 09:48:25;;;;;;;19.83;6.50;;;;;;;7.96;51.72;93061.75;4962992;28;20038;-95
2022/02/11 09:51:22;;;;;;;16.52;6.03;;;;;;;8.69;51.57;93112.06;4952837;28;20454;-95
2022/02/11 09:54:13;;;;;;;;;;;;;;;;;;;;;
2022/02/11 09:57:37;;;;;;;;;;;;;;;;;;;;;
2022/02/11 10:00:28;;;;;;;16.90;6.55;;;;;;;8.25;49.93;93043.84;4969237;28;20111;-94
2022/02/11 10:03:37;;;;;;;14.52;5.75;;;;;;;8.48;50.34;93059.03;4993307;28;20118;-94
2022/02/11 10:06:39;;;;;;;14.95;5.95;;;;;;;8.80;50.14;93062.47;4984162;28;20117;-94
2022/02/11 10:09:59;;;;;;;15.32;6.00;;;;;;;8.77;49.29;93034.28;4987191;28;20061;-94
2022/02/11 10:12:50;;;;;;;19.30;7.03;;;;;;;9.23;51.12;93099.53;4977519;28;20038;-94
2022/02/11 10:15:48;;;;;;;13.10;6.88;;;;;;;8.31;53.82;93040.22;4952519;28;20053;-94
2022/02/11 10:21:47;;;;;;;;;;;;;;;;;;;;;
2022/02/11 10:24:58;;;;;;;;;;;;;;;;;;;;;
2022/02/11 10:31:35;;;;;;;10.52;5.97;;;;;;;7.98;53.49;93102.16;4969756;28;20803;-93
2022/02/11 10:34:14;;;;;;;14.80;5.97;;;;;;;8.25;52.75;93096.00;4970581;28;20066;-94
2022/02/11 10:44:07;;;;;;;;;;;;;;;;;;;;;
2022/02/11 10:47:25;;;;;;;19.30;6.45;;;;;;;7.86;55.28;93018.19;4968457;28;20042;-93
2022/02/11 10:50:31;;;;;;;;;;;;;;;;;;;;;
2022/02/11 10:57:41;;;;;;;17.08;5.68;;;;;;;8.61;51.35;93054.38;4907922;29;20405;-94
2022/02/11 11:00:43;;;;;;;13.75;5.65;;;;;;;8.18;51.60;93012.00;4886408;29;20044;-94
2022/02/11 11:07:37;;;;;;;;;;;;;;;;;;;;;
2022/02/11 11:10:28;;;;;;;21.73;6.43;;;;;;;9.43;49.80;93020.34;5010047;28;20048;-94
2022/02/11 11:13:47;;;;;;;;;;;;;;;;;;;;;
2022/02/11 11:16:37;;;;;;;18.23;5.43;;;;;;;10.16;48.17;93012.75;4989394;28;20578;-92
2022/02/11 11:19:50;;;;;;;;;;;;;;;;;;;;;
2022/02/11 11:22:47;;;;;;;12.00;5.32;;;;;;;10.25;48.46;92999.09;4990748;28;20070;-86
2022/02/11 11:25:16;;;;;;;13.30;5.60;;;;;;;9.98;46.34;92963.69;4960103;28;20125;-87
2022/02/11 11:27:57;;;;;;;10.82;5.18;;;;;;;10.06;47.67;92976.16;5000300;28;20110;-87
2022/02/11 11:30:40;;;;;;;15.18;6.05;;;;;;;11.36;45.84;93025.47;4996829;28;20085;-86
2022/02/11 11:33:11;;;;;;;12.80;5.78;;;;;;;10.63;46.26;93019.28;5011478;28;20038;-87
2022/02/11 11:36:01;;;;;;;19.05;5.88;;;;;;;11.36;45.79;93016.84;5010420;28;20652;-87
2022/02/11 11:38:55;;;;;;;17.88;6.25;;;;;;;12.48;43.71;92999.00;4982350;28;20052;-87
2022/02/11 11:41:28;;;;;;;16.95;5.40;;;;;;;12.70;43.15;93014.97;4960756;28;20488;-88
2022/02/11 11:44:14;;;;;;;13.90;5.65;;;;;;;12.81;42.62;93014.78;4970854;28;20037;-87
2022/02/11 11:46:47;;;;;;;12.43;5.75;;;;;;;12.69;42.04;93007.34;4975652;28;20118;-86
2022/02/11 11:49:16;;;;;;;11.32;5.47;;;;;;;13.08;41.49;93017.53;4973734;28;20114;-87
2022/02/11 11:51:44;;;;;;;19.33;5.38;;;;;;;12.87;41.24;92995.25;4943483;28;20037;-89
2022/02/11 11:54:21;;;;;;;12.30;5.60;;;;;;;11.74;42.86;93007.25;4966342;28;20045;-87
2022/02/11 11:56:49;;;;;;;15.23;5.95;;;;;;;12.07;43.83;93004.81;5013543;28;20017;-87
2022/02/11 11:59:17;;;;;;;13.40;5.55;;;;;;;12.03;42.84;93009.06;4964493;28;20031;-86
2022/02/11 12:02:06;;;;;;;14.18;5.65;;;;;;;12.70;41.84;93008.94;4988520;28;20057;-88
2022/02/11 12:04:41;;;;;;;16.58;5.80;;;;;;;12.74;40.84;93012.53;4963880;28;20027;-87
2022/02/11 12:07:11;;;;;;;11.60;4.70;;;;;;;12.72;38.81;92985.75;4977522;28;20034;-88
2022/02/11 12:09:38;;;;;;;11.75;4.60;;;;;;;12.57;39.52;93007.03;4982596;28;20058;-88
2022/02/11 12:12:07;;;;;;;13.80;5.43;;;;;;;12.20;40.71;92990.97;4968647;28;20120;-89
2022/02/11 12:14:35;;;;;;;10.75;4.90;;;;;;;12.54;40.73;92997.88;5007934;28;20042;-87
2022/02/11 12:17:09;;;;;;;13.80;5.50;;;;;;;11.72;42.16;92972.66;4959192;28;20041;-87
2022/02/11 12:19:44;;;;;;;16.77;5.45;;;;;;;11.40;42.58;92966.22;4976365;28;20054;-88
2022/02/11 12:27:19;;;;;;;17.77;5.57;;;;;;;11.46;43.22;92940.72;4975043;28;20085;-86
2022/02/11 12:28:57;;;;;;;13.73;5.15;;;;;;;11.89;41.79;92969.63;4979231;28;20049;-87
2022/02/11 12:32:12;;;;;;;13.98;3.65;;;;;;;11.37;38.52;92927.47;4975946;28;20042;-87
2022/02/11 12:34:49;;;;;;;10.07;3.17;;;;;;;12.66;37.21;92939.66;4975241;28;20404;-87
2022/02/11 12:37:29;;;;;;;9.38;4.45;;;;;;;12.37;39.93;92939.84;4992132;28;20030;-88
2022/02/11 12:40:22;;;;;;;12.60;5.38;;;;;;;11.77;42.08;92963.94;4989979;28;20045;-87
2022/02/11 12:43:13;;;;;;;8.30;4.13;;;;;;;11.36;43.12;92994.03;4989589;28;20042;-87
2022/02/11 12:46:11;;;;;;;10.43;4.15;;;;;;;11.18;42.06;92935.25;4974704;28;20038;-88
2022/02/11 12:49:03;;;;;;;16.50;5.65;;;;;;;12.15;41.27;92933.31;4974459;28;20031;-88
2022/02/11 12:51:36;;;;;;;11.32;4.88;;;;;;;12.19;41.47;92931.69;4974224;28;20145;-89
2022/02/11 12:54:19;;;;;;;14.70;5.25;;;;;;;11.83;41.64;92962.84;4974711;28;20073;-88
2022/02/11 12:57:16;;;;;;;;;;;;;;;;;;;;;
2022/02/11 13:00:00;;;;;;;7.13;3.80;;;;;;;12.96;37.51;92929.69;4991416;28;20030;-88
2022/02/11 13:02:47;;;;;;;9.63;3.47;;;;;;;12.39;37.88;92984.97;4991650;28;20062;-88
2022/02/11 13:05:24;;;;;;;5.85;3.17;;;;;;;13.31;37.02;92973.78;4976138;28;20108;-88
2022/02/11 13:08:11;;;;;;;;;;;;;;;;;;;;;
2022/02/11 13:10:53;;;;;;;;;;;;;;;;;;;;;
2022/02/11 13:13:44;;;;;;;10.50;3.60;;;;;;;12.39;36.90;92953.44;5013387;28;20046;-88
2022/02/11 13:16:18;;;;;;;12.57;4.20;;;;;;;12.05;38.93;92959.69;4998183;28;20038;-86
2022/02/11 13:18:47;;;;;;;12.15;4.22;;;;;;;11.36;39.51;92944.22;4996848;28;20042;-87
2022/02/11 13:21:24;;;;;;;4.30;1.77;;;;;;;11.44;28.19;92935.75;4999577;28;20032;-87
2022/02/11 13:24:13;;;;;;;2.55;1.30;;;;;;;12.00;27.72;92928.25;5014878;28;20049;-87
2022/02/11 13:26:48;;;;;;;3.72;1.50;;;;;;;12.22;26.10;92932.94;4999185;28;20072;-87
2022/02/11 13:29:26;;;;;;;2.20;1.10;;;;;;;12.47;25.80;92971.97;4980053;28;20074;-87
2022/02/11 13:32:22;;;;;;;1.95;1.15;;;;;;;12.50;24.88;92965.38;4983742;28;20030;-89
2022/02/11 13:35:21;;;;;;;;;;;;;;;;;;;;;
2022/02/11 13:38:26;;;;;;;4.72;1.70;;;;;;;13.00;23.56;92957.72;4992600;28;20038;-87
2022/02/11 13:41:15;;;;;;;2.42;1.25;;;;;;;12.55;22.73;92949.53;4989300;28;20113;-87
2022/02/11 13:43:55;;;;;;;1.38;0.85;;;;;;;12.86;22.53;92947.19;4986836;28;20085;-87
2022/02/11 13:47:00;;;;;;;3.00;0.75;;;;;;;13.27;20.80;92940.44;4996454;28;20479;-88
2022/02/11 13:49:41;;;;;;;1.50;0.77;;;;;;;13.60;20.25;92962.22;5003752;28;20057;-87
2022/02/11 13:55:18;;;;;;;5.68;1.15;;;;;;;14.06;20.93;92955.25;4978839;28;20547;-87
2022/02/11 13:57:49;;;;;;;;;;;;;;;14.85;20.30;93014.63;4962487;28;20607;-88
2022/02/11 14:00:41;;;;;;;1.65;0.95;;;;;;;14.51;19.35;92966.63;4968576;28;19971;-89
2022/02/11 14:03:36;;;;;;;1.17;0.80;;;;;;;13.88;18.26;92949.78;4976008;28;20042;-88
2022/02/11 14:06:02;;;;;;;0.60;0.60;;;;;;;13.53;20.08;92993.34;4961026;28;20128;-87
2022/02/11 14:08:49;;;;;;;1.20;0.80;;;;;;;13.88;20.36;92991.91;4976413;28;20034;-87
2022/02/11 14:11:23;;;;;;;1.48;0.80;;;;;;;13.87;20.56;92969.31;4995046;28;20082;-88
2022/02/11 14:14:07;;;;;;;1.83;0.88;;;;;;;14.08;20.28;92961.75;4972951;28;20122;-88
2022/02/11 14:16:37;;;;;;;1.20;0.73;;;;;;;14.57;19.81;92991.81;4956920;28;20105;-87
2022/02/11 14:19:25;;;;;;;1.02;0.73;;;;;;;14.66;19.52;93010.31;4956220;28;20460;-87
2022/02/11 14:22:11;;;;;;;;;;;;;;;;;;;;;
2022/02/11 14:24:39;;;;;;;1.08;0.70;;;;;;;15.01;18.32;93005.28;4984451;28;20121;-87
2022/02/11 14:27:13;;;;;;;2.00;0.90;;;;;;;15.15;17.99;93008.66;4960175;28;20031;-87
2022/02/11 14:29:51;;;;;;;0.77;0.70;;;;;;;15.05;17.16;93006.25;4975038;28;20049;-88
2022/02/11 14:32:28;;;;;;;1.33;0.60;;;;;;;14.93;17.10;93014.69;4960354;28;20042;-87
2022/02/11 14:35:15;;;;;;;0.50;0.40;;;;;;;15.17;15.60;93024.91;4986912;28;20050;-86
2022/02/11 14:37:51;;;;;;;0.60;0.43;;;;;;;15.05;15.72;93027.34;4963608;28;20073;-88
2022/02/11 14:40:23;;;;;;;0.77;0.55;;;;;;;14.94;15.47;93047.88;4964031;28;20050;-87
2022/02/11 14:43:18;;;;;;;1.67;0.85;;;;;;;14.52;14.84;93010.34;5001764;28;20582;-88
2022/02/11 14:45:50;;;;;;;0.38;0.32;;;;;;;14.43;14.68;93032.38;5005038;28;20038;-86
2022/02/11 14:51:19;;;;;;;0.30;0.30;;;;;;;14.66;13.84;93041.94;4980246;28;20042;-87
2022/02/11 14:53:52;;;;;;;0.40;0.40;;;;;;;14.69;13.63;93030.78;5005111;28;20109;-87
2022/02/11 14:56:30;;;;;;;0.40;0.40;;;;;;;14.60;13.78;93011.50;4982706;28;20031;-88
2022/02/11 14:59:18;;;;;;;0.35;0.35;;;;;;;14.23;13.17;93026.50;4977172;28;20031;-87
2022/02/11 15:02:07;;;;;;;0.30;0.30;;;;;;;13.52;10.39;93008.38;4976569;28;20058;-87
2022/02/11 15:05:01;;;;;;;;;;;;;;;;;;;;;
2022/02/11 15:07:42;;;;;;;;;;;;;;;;;;;;;
2022/02/11 15:10:12;;;;;;;0.55;0.40;;;;;;;12.78;10.82;93054.78;4982505;28;20054;-88
2022/02/11 15:12:56;;;;;;;0.40;0.40;;;;;;;12.96;12.46;93056.59;4980426;28;20041;-88
2022/02/11 15:15:32;;;;;;;0.30;0.30;;;;;;;13.39;12.13;93053.81;4975888;28;20463;-87
2022/02/11 15:18:13;;;;;;;0.55;0.52;;;;;;;13.57;11.11;93065.34;4989110;28;20046;-88
2022/02/11 15:20:49;;;;;;;0.43;0.40;;;;;;;13.46;11.13;93058.72;4941141;28;20493;-88
2022/02/11 15:23:26;;;;;;;0.35;0.35;;;;;;;13.09;11.15;93049.84;4993270;28;20073;-87
2022/02/11 15:26:22;;;;;;;;;;;;;;;;;;;;;
2022/02/11 15:29:05;;;;;;;0.40;0.40;;;;;;;13.00;10.87;93090.97;4973638;28;20677;-88
2022/02/11 15:31:36;;;;;;;0.50;0.50;;;;;;;12.99;10.49;93094.66;5008914;28;20057;-87
2022/02/11 15:34:14;;;;;;;0.50;0.50;;;;;;;12.48;9.91;93077.78;5011509;28;20033;-87
2022/02/11 15:37:07;;;;;;;1.48;0.45;;;;;;;12.46;10.75;93069.41;4955346;28;20101;-88
2022/02/11 15:39:42;;;;;;;0.88;0.50;;;;;;;12.61;10.66;93134.84;4987123;28;20032;-88
2022/02/11 15:42:19;;;;;;;0.60;0.50;;;;;;;11.43;10.17;93090.69;4999501;28;20050;-88
2022/02/11 15:44:50;;;;;;;0.50;0.45;;;;;;;11.18;10.91;93073.34;4958957;28;20042;-87
2022/02/11 15:47:26;;;;;;;1.05;0.65;;;;;;;11.45;10.78;93114.78;4963439;28;20517;-87
2022/02/11 15:50:00;;;;;;;0.60;0.47;;;;;;;11.07;11.92;93093.59;4971918;28;20062;-88
2022/02/11 15:52:43;;;;;;;;;;;;;;;;;;;;;
2022/02/11 15:55:20;;;;;;;0.82;0.60;;;;;;;10.56;11.74;93110.44;4993984;28;20034;-86
2022/02/11 15:58:05;;;;;;;0.70;0.60;;;;;;;10.14;11.79;93150.88;4979482;28;20040;-86
2022/02/11 16:00:38;;;;;;;0.47;0.47;;;;;;;9.44;12.88;93108.16;4941357;28;20076;-87
2022/02/11 16:03:17;;;;;;;0.40;0.40;;;;;;;9.29;12.17;93161.97;4960072;28;20053;-87
2022/02/11 16:05:45;;;;;;;0.30;0.30;;;;;;;8.62;11.95;93103.69;4956554;28;20066;-88
2022/02/11 16:08:28;;;;;;;5.68;0.75;;;;;;;8.18;13.21;93096.25;4994191;28;20035;-88
2022/02/11 16:11:03;;;;;;;0.73;0.50;;;;;;;7.84;13.88;93088.03;4975190;28;20072;-87
2022/02/11 16:13:45;;;;;;;0.35;0.35;;;;;;;8.10;13.77;93147.03;4976325;28;20045;-89
2022/02/11 16:16:20;;;;;;;0.52;0.50;;;;;;;7.87;14.13;93137.81;4992145;28;20085;-88
2022/02/11 16:18:58;;;;;;;0.73;0.52;;;;;;;7.80;14.79;93152.13;4975657;28;20045;-87
2022/02/11 16:21:44;;;;;;;;;;;;;;;;;;;;;
2022/02/11 16:24:36;;;;;;;0.35;0.35;;;;;;;7.21;13.13;93113.97;4979999;28;20562;-88
2022/02/11 16:30:23;;;;;;;0.80;0.50;;;;;;;7.38;14.42;93200.56;5010616;28;20042;-87
2022/02/11 16:32:49;;;;;;;0.30;0.30;;;;;;;6.71;14.78;93134.13;4975555;28;20066;-88
2022/02/11 16:35:21;;;;;;;0.38;0.38;;;;;;;6.82;15.54;93187.84;4958050;28;20498;-87
2022/02/11 16:38:12;;;;;;;0.75;0.40;;;;;;;6.66;15.83;93193.91;4975238;28;20038;-87
2022/02/11 16:40:38;;;;;;;1.45;0.45;;;;;;;6.25;14.69;93154.44;4974778;28;20073;-89
2022/02/11 16:43:11;;;;;;;0.40;0.40;;;;;;;6.50;15.03;93190.34;4975727;28;20080;-87
2022/02/11 16:45:39;;;;;;;0.63;0.40;;;;;;;6.02;13.81;93148.44;4974799;28;20034;-87
2022/02/11 16:48:09;;;;;;;0.75;0.50;;;;;;;6.22;14.27;93204.31;4977610;28;20053;-88
2022/02/11 16:50:48;;;;;;;0.30;0.30;;;;;;;6.31;15.03;93236.69;4980274;28;20112;-86
2022/02/11 16:53:16;;;;;;;0.73;0.57;;;;;;;5.64;16.03;93160.41;4994652;28;20041;-87
2022/02/11 16:56:04;;;;;;;1.30;0.63;;;;;;;5.80;16.89;93197.75;4982446;28;20029;-88
2022/02/11 16:58:32;;;;;;;0.80;0.73;;;;;;;5.85;17.48;93223.03;4963750;28;20121;-87
2022/02/11 17:00:58;;;;;;;0.50;0.50;;;;;;;5.48;18.09;93181.97;4969562;28;20046;-86
2022/02/11 17:03:32;;;;;;;0.43;0.40;;;;;;;5.32;18.34;93190.56;4943946;28;20126;-87
2022/02/11 17:06:08;;;;;;;0.50;0.40;;;;;;;5.15;18.90;93185.38;4942535;28;20027;-87
2022/02/11 17:08:53;;;;;;;0.52;0.50;;;;;;;5.04;18.98;93179.22;4945740;28;20495;-87
2022/02/11 17:15:32;;;;;;;0.50;0.50;;;;;;;5.19;19.08;93266.94;4919681;29;20099;-87
2022/02/11 17:18:25;;;;;;;0.45;0.45;;;;;;;4.89;19.29;93244.63;4918273;28;20506;-89
2022/02/11 17:21:09;;;;;;;0.50;0.50;;;;;;;5.13;19.39;93299.00;4947019;28;20053;-89
2022/02/11 17:23:51;;;;;;;3.33;0.63;;;;;;;4.57;19.59;93233.88;4962280;28;20042;-88
2022/02/11 17:30:02;;;;;;;0.60;0.60;;;;;;;4.62;18.45;93239.19;4934035;28;20092;-89
2022/02/11 17:32:47;;;;;;;0.63;0.40;;;;;;;4.41;19.53;93255.38;4973003;28;20039;-89
2022/02/11 17:35:21;;;;;;;0.50;0.50;;;;;;;4.73;19.68;93329.16;4929459;28;20114;-90
2022/02/11 17:38:00;;;;;;;;;;;;;;;;;;;;;
2022/02/11 17:41:00;;;;;;;;;;;;;;;;;;;;;
2022/02/11 17:44:14;;;;;;;;;;;;;;;;;;;;;
2022/02/11 17:47:14;;;;;;;1.23;0.80;;;;;;;4.45;18.92;93318.72;4944012;28;20555;-91
2022/02/11 17:49:53;;;;;;;1.08;0.68;;;;;;;3.95;18.67;93263.75;4946910;28;21975;-89
2022/02/11 17:52:24;;;;;;;0.60;0.60;;;;;;;4.03;18.53;93269.59;4955032;28;20035;-88
2022/02/11 17:55:34;;;;;;;;;;;;;;;;;;;;;
2022/02/11 17:58:35;;;;;;;1.33;0.60;;;;;;;3.74;18.95;93278.06;4940659;28;20670;-88
2022/02/11 18:01:25;;;;;;;1.25;0.70;;;;;;;3.90;19.51;93306.91;4958581;28;20050;-88
2022/02/11 18:04:11;;;;;;;0.50;0.50;;;;;;;3.75;18.91;93281.44;4979252;28;20034;-88
2022/02/11 18:07:17;;;;;;;1.02;0.50;;;;;;;3.67;17.64;93271.41;4969863;28;20034;-88
2022/02/11 18:36:36;;;;;;;0.43;0.43;;;;;;;3.30;18.62;93385.44;4985775;28;20073;-77
2022/02/11 18:39:04;;;;;;;1.15;0.70;;;;;;;3.20;18.30;93385.97;4996552;28;20038;-77
2022/02/11 18:41:30;;;;;;;1.02;0.70;;;;;;;3.28;17.76;93392.63;4996715;28;20074;-77
2022/02/11 18:43:56;;;;;;;1.42;0.63;;;;;;;3.22;18.00;93390.91;4978061;28;20085;-77
2022/02/11 18:46:22;;;;;;;0.70;0.70;;;;;;;3.32;17.50;93391.97;4978697;28;20042;-77
2022/02/11 18:48:47;;;;;;;0.95;0.63;;;;;;;3.36;17.64;93394.94;4977571;28;20034;-77